Time;durP1;ratioP1;P1;durP2;ratioP2;P2;SDS_P1;SDS_P2;PMS_P1;PMS_P2;Temp;Humidity;BMP_temperature;BMP_pressure;BME280_temperature;BME280_humidity;BME280_pressure;Samples;Min_cycle;Max_cycle;Signal;HPM_P1;HPM_P2
2022/10/17 00:00:34;;;;;;;6.27;2.90;;;;;;;;;;5035601;28;20417;-78
2022/10/17 00:03:03;;;;;;;3.73;2.80;;;;;;;;;;5034760;28;20226;-79
2022/10/17 00:05:33;;;;;;;3.77;2.87;;;;;;;;;;5032889;28;20215;-79
2022/10/17 00:08:01;;;;;;;3.50;3.20;;;;;;;;;;5035557;28;20628;-79
2022/10/17 00:10:30;;;;;;;4.30;3.03;;;;;;;;;;5035640;28;20255;-79
2022/10/17 00:12:58;;;;;;;3.57;3.27;;;;;;;;;;5035436;28;20255;-79
2022/10/17 00:15:27;;;;;;;4.40;3.23;;;;;;;;;;5033985;28;20292;-79
2022/10/17 00:17:55;;;;;;;3.20;2.90;;;;;;;;;;5034604;28;20303;-78
2022/10/17 00:20:24;;;;;;;3.43;3.03;;;;;;;;;;5035469;28;20219;-78
2022/10/17 00:22:54;;;;;;;3.43;3.10;;;;;;;;;;5035185;28;20246;-79
2022/10/17 00:25:22;;;;;;;3.40;2.87;;;;;;;;;;5034148;28;20286;-78
2022/10/17 00:27:51;;;;;;;3.83;2.60;;;;;;;;;;5034756;28;20200;-78
2022/10/17 00:30:19;;;;;;;5.00;2.80;;;;;;;;;;5034843;28;20223;-79
2022/10/17 00:32:47;;;;;;;5.10;2.80;;;;;;;;;;5035624;28;20295;-79
2022/10/17 00:35:16;;;;;;;5.63;3.50;;;;;;;;;;5034862;28;20651;-79
2022/10/17 00:37:44;;;;;;;3.70;3.30;;;;;;;;;;5034420;28;20303;-79
2022/10/17 00:40:14;;;;;;;4.57;3.00;;;;;;;;;;5034649;28;20246;-79
2022/10/17 00:42:43;;;;;;;3.33;3.03;;;;;;;;;;5034613;28;20283;-79
2022/10/17 00:45:17;;;;;;;3.13;2.90;;;;;;;;;;5026389;28;20293;-78
2022/10/17 00:47:48;;;;;;;3.97;2.87;;;;;;;;;;5034857;28;20244;-78
2022/10/17 00:50:17;;;;;;;4.83;3.33;;;;;;;;;;5034920;28;20247;-78
2022/10/17 00:52:46;;;;;;;4.47;3.27;;;;;;;;;;5035090;28;20212;-79
2022/10/17 00:55:18;;;;;;;3.87;3.40;;;;;;;;;;5034098;28;20243;-78
2022/10/17 00:57:46;;;;;;;3.80;3.50;;;;;;;;;;5034609;28;20283;-78
2022/10/17 01:00:15;;;;;;;4.10;3.70;;;;;;;;;;5033303;28;20303;-78
2022/10/17 01:02:44;;;;;;;3.43;3.13;;;;;;;;;;5034870;28;20204;-78
2022/10/17 01:05:13;;;;;;;4.23;3.80;;;;;;;;;;5033750;28;20231;-79
2022/10/17 01:07:42;;;;;;;5.43;3.67;;;;;;;;;;5033962;28;20204;-79
2022/10/17 01:10:11;;;;;;;4.10;3.60;;;;;;;;;;5033528;28;20219;-78
2022/10/17 01:12:52;;;;;;;3.70;3.40;;;;;;;;;;5028717;28;20201;-79
2022/10/17 01:15:26;;;;;;;3.40;3.10;;;;;;;;;;5033814;28;20724;-79
2022/10/17 01:17:59;;;;;;;4.07;3.63;;;;;;;;;;5034352;28;20208;-78
2022/10/17 01:20:58;;;;;;;6.30;4.20;;;;;;;;;;5033605;28;21081;-78
2022/10/17 01:23:37;;;;;;;6.40;4.13;;;;;;;;;;4973117;28;20257;-79
2022/10/17 01:26:08;;;;;;;4.43;3.80;;;;;;;;;;5023599;28;20675;-78
2022/10/17 01:28:48;;;;;;;4.63;3.77;;;;;;;;;;5033425;28;20247;-79
2022/10/17 01:31:21;;;;;;;3.90;3.30;;;;;;;;;;5033656;28;20301;-78
2022/10/17 01:33:54;;;;;;;4.57;3.67;;;;;;;;;;5033794;28;20242;-78
2022/10/17 01:36:31;;;;;;;3.70;3.40;;;;;;;;;;5033113;28;20196;-79
2022/10/17 01:39:03;;;;;;;4.23;3.90;;;;;;;;;;5030535;28;20593;-79
2022/10/17 01:41:36;;;;;;;5.80;4.00;;;;;;;;;;5033825;28;20243;-78
2022/10/17 01:44:06;;;;;;;4.10;3.70;;;;;;;;;;5033564;28;20254;-79
2022/10/17 01:46:37;;;;;;;3.63;3.33;;;;;;;;;;5022580;28;20307;-78
2022/10/17 01:49:07;;;;;;;4.73;3.07;;;;;;;;;;5019599;28;20292;-79
2022/10/17 01:51:38;;;;;;;4.00;3.67;;;;;;;;;;5033641;28;20578;-78
2022/10/17 01:54:10;;;;;;;3.90;3.53;;;;;;;;;;5033340;28;20227;-79
2022/10/17 01:56:39;;;;;;;3.83;3.43;;;;;;;;;;5032129;28;20243;-78
2022/10/17 01:59:11;;;;;;;4.00;3.60;;;;;;;;;;5033361;28;20259;-78
2022/10/17 02:01:42;;;;;;;4.00;3.70;;;;;;;;;;5033738;28;20353;-78
2022/10/17 02:04:12;;;;;;;3.97;3.67;;;;;;;;;;5032865;28;20253;-78
2022/10/17 02:06:40;;;;;;;4.27;3.90;;;;;;;;;;5033048;28;20709;-78
2022/10/17 02:09:18;;;;;;;3.87;3.57;;;;;;;;;;5033383;28;20290;-78
2022/10/17 02:11:51;;;;;;;4.20;3.80;;;;;;;;;;5015814;28;20302;-78
2022/10/17 02:14:26;;;;;;;3.93;3.43;;;;;;;;;;5029385;28;20235;-78
2022/10/17 02:17:05;;;;;;;3.70;3.40;;;;;;;;;;5032027;28;20294;-78
2022/10/17 02:19:44;;;;;;;4.03;3.70;;;;;;;;;;5033358;28;20314;-79
2022/10/17 02:22:17;;;;;;;4.47;4.07;;;;;;;;;;5033559;28;20576;-79
2022/10/17 02:24:49;;;;;;;4.50;4.10;;;;;;;;;;5032681;28;20253;-78
2022/10/17 02:27:21;;;;;;;4.73;4.20;;;;;;;;;;5032866;28;20242;-78
2022/10/17 02:29:51;;;;;;;4.17;3.87;;;;;;;;;;5032760;28;20220;-78
2022/10/17 02:32:25;;;;;;;3.63;3.33;;;;;;;;;;5033472;28;20243;-78
2022/10/17 02:34:55;;;;;;;3.67;3.20;;;;;;;;;;5032317;28;20249;-78
2022/10/17 02:37:25;;;;;;;3.83;3.53;;;;;;;;;;5032694;28;20235;-78
2022/10/17 02:39:55;;;;;;;3.87;3.40;;;;;;;;;;5030631;28;20238;-78
2022/10/17 02:42:24;;;;;;;4.80;3.23;;;;;;;;;;5031766;28;20212;-79
2022/10/17 02:44:53;;;;;;;3.20;3.00;;;;;;;;;;5031980;28;20223;-78
2022/10/17 02:47:26;;;;;;;3.23;3.03;;;;;;;;;;5032580;28;20239;-79
2022/10/17 02:49:57;;;;;;;3.10;2.80;;;;;;;;;;5032868;28;20311;-78
2022/10/17 02:52:28;;;;;;;3.80;3.50;;;;;;;;;;5032704;28;20200;-78
2022/10/17 02:54:59;;;;;;;3.90;3.60;;;;;;;;;;5032441;28;20270;-78
2022/10/17 02:57:29;;;;;;;3.00;2.80;;;;;;;;;;5032610;28;20703;-78
2022/10/17 02:59:59;;;;;;;3.80;3.50;;;;;;;;;;5032514;28;20259;-79
2022/10/17 03:02:29;;;;;;;3.67;3.37;;;;;;;;;;5033025;28;20618;-78
2022/10/17 03:04:58;;;;;;;3.70;3.40;;;;;;;;;;5023289;28;20196;-78
2022/10/17 03:07:26;;;;;;;4.57;4.20;;;;;;;;;;5033440;28;20720;-79
2022/10/17 03:09:55;;;;;;;4.60;4.20;;;;;;;;;;5030596;28;20255;-78
2022/10/17 03:12:23;;;;;;;4.83;4.43;;;;;;;;;;5028949;28;20279;-78
2022/10/17 03:14:51;;;;;;;5.50;5.00;;;;;;;;;;5032087;28;20290;-78
2022/10/17 03:17:20;;;;;;;7.23;6.53;;;;;;;;;;5032489;28;20212;-78
2022/10/17 03:19:50;;;;;;;7.47;6.77;;;;;;;;;;5032471;28;20318;-79
2022/10/17 03:22:18;;;;;;;8.60;6.57;;;;;;;;;;5032517;28;20235;-79
2022/10/17 03:24:47;;;;;;;10.50;8.00;;;;;;;;;;5031430;28;20283;-79
2022/10/17 03:27:15;;;;;;;9.97;7.77;;;;;;;;;;5032751;28;20631;-79
2022/10/17 03:29:44;;;;;;;8.93;8.13;;;;;;;;;;5033971;28;20228;-78
2022/10/17 03:32:12;;;;;;;8.97;8.10;;;;;;;;;;5036639;28;20715;-78
2022/10/17 03:34:41;;;;;;;9.37;8.20;;;;;;;;;;5035232;28;20612;-78
2022/10/17 03:37:10;;;;;;;9.33;8.43;;;;;;;;;;5035663;28;20291;-79
2022/10/17 03:39:39;;;;;;;9.90;8.27;;;;;;;;;;5034640;28;20255;-79
2022/10/17 03:42:07;;;;;;;8.57;7.87;;;;;;;;;;5035626;28;20253;-79
2022/10/17 03:44:36;;;;;;;9.20;8.23;;;;;;;;;;5034746;28;20228;-78
2022/10/17 03:47:04;;;;;;;8.67;7.77;;;;;;;;;;5035646;28;20295;-79
2022/10/17 03:49:37;;;;;;;8.43;7.63;;;;;;;;;;5035590;28;20299;-79
2022/10/17 03:52:06;;;;;;;9.77;7.50;;;;;;;;;;5036095;28;20593;-79
2022/10/17 03:54:36;;;;;;;8.97;8.07;;;;;;;;;;5035048;28;20669;-78
2022/10/17 03:57:04;;;;;;;9.43;8.50;;;;;;;;;;5035664;28;20242;-79
2022/10/17 03:59:33;;;;;;;12.30;7.77;;;;;;;;;;5017152;28;20225;-79
2022/10/17 04:02:01;;;;;;;8.80;7.90;;;;;;;;;;5022980;28;20295;-79
2022/10/17 04:04:30;;;;;;;8.03;7.33;;;;;;;;;;5034414;28;20673;-79
2022/10/17 04:06:58;;;;;;;8.67;7.77;;;;;;;;;;5035412;28;20253;-79
2022/10/17 04:09:27;;;;;;;8.30;7.50;;;;;;;;;;5035534;28;20297;-79
2022/10/17 04:11:57;;;;;;;9.37;7.83;;;;;;;;;;5035624;28;20235;-79
2022/10/17 04:14:25;;;;;;;9.13;8.03;;;;;;;;;;5034135;28;20687;-79
2022/10/17 04:16:54;;;;;;;8.03;7.27;;;;;;;;;;5034885;28;20250;-79
2022/10/17 04:19:22;;;;;;;8.93;8.10;;;;;;;;;;5035391;28;20298;-79
2022/10/17 04:21:50;;;;;;;10.83;8.20;;;;;;;;;;5035493;28;20216;-79
2022/10/17 04:24:19;;;;;;;9.93;7.97;;;;;;;;;;5034657;28;20317;-79
2022/10/17 04:26:50;;;;;;;9.63;7.57;;;;;;;;;;5035320;28;20208;-79
2022/10/17 04:29:20;;;;;;;8.03;7.33;;;;;;;;;;5034997;28;20228;-79
2022/10/17 04:31:51;;;;;;;8.10;7.40;;;;;;;;;;5029448;28;20725;-79
2022/10/17 04:34:19;;;;;;;8.30;7.13;;;;;;;;;;5029518;28;20205;-79
2022/10/17 04:36:48;;;;;;;7.17;6.47;;;;;;;;;;5033502;28;20242;-79
2022/10/17 04:39:16;;;;;;;8.50;7.77;;;;;;;;;;5034621;28;20313;-79
2022/10/17 04:41:45;;;;;;;8.10;7.07;;;;;;;;;;5033590;28;20771;-79
2022/10/17 04:44:14;;;;;;;7.17;6.47;;;;;;;;;;5033034;28;20208;-79
2022/10/17 04:46:44;;;;;;;9.03;6.70;;;;;;;;;;5034134;28;20282;-79
2022/10/17 04:49:13;;;;;;;7.30;6.70;;;;;;;;;;5033733;28;20224;-79
2022/10/17 04:51:41;;;;;;;7.53;6.27;;;;;;;;;;5033723;28;20231;-79
2022/10/17 04:54:10;;;;;;;7.93;6.17;;;;;;;;;;5034573;28;20236;-79
2022/10/17 04:56:38;;;;;;;7.20;6.10;;;;;;;;;;5033850;28;20295;-79
2022/10/17 04:59:07;;;;;;;6.43;5.83;;;;;;;;;;5034092;28;20572;-79
2022/10/17 05:01:35;;;;;;;6.50;5.90;;;;;;;;;;5032386;28;20266;-79
2022/10/17 05:04:05;;;;;;;6.10;5.20;;;;;;;;;;5027610;28;20204;-79
2022/10/17 05:06:36;;;;;;;7.60;6.00;;;;;;;;;;5015100;28;20204;-79
2022/10/17 05:09:05;;;;;;;6.30;5.20;;;;;;;;;;5015326;28;20200;-79
2022/10/17 05:11:33;;;;;;;5.93;5.33;;;;;;;;;;5030294;28;20239;-79
2022/10/17 05:14:02;;;;;;;6.80;5.50;;;;;;;;;;5032845;28;20199;-79
2022/10/17 05:16:31;;;;;;;5.90;5.40;;;;;;;;;;5026811;28;20265;-79
2022/10/17 05:19:00;;;;;;;5.93;5.00;;;;;;;;;;5032030;28;20207;-79
2022/10/17 05:21:30;;;;;;;7.23;5.20;;;;;;;;;;5033694;28;20646;-78
2022/10/17 05:24:06;;;;;;;8.43;5.23;;;;;;;;;;5033564;28;20579;-78
2022/10/17 05:26:34;;;;;;;5.50;5.00;;;;;;;;;;5015316;28;20193;-79
2022/10/17 05:29:04;;;;;;;6.13;4.80;;;;;;;;;;5028461;28;20207;-79
2022/10/17 05:31:33;;;;;;;5.53;4.57;;;;;;;;;;5031125;28;21954;-79
2022/10/17 05:34:02;;;;;;;4.83;4.43;;;;;;;;;;5033533;28;20231;-79
2022/10/17 05:36:32;;;;;;;6.57;4.70;;;;;;;;;;5033389;28;20310;-79
2022/10/17 05:39:00;;;;;;;8.30;4.60;;;;;;;;;;5033923;28;20298;-79
2022/10/17 05:41:28;;;;;;;4.70;4.30;;;;;;;;;;5027066;28;20235;-79
2022/10/17 05:43:57;;;;;;;5.33;4.33;;;;;;;;;;5032292;28;20235;-79
2022/10/17 05:46:32;;;;;;;7.63;4.30;;;;;;;;;;5032144;28;20710;-80
2022/10/17 05:49:00;;;;;;;5.97;4.40;;;;;;;;;;5013680;28;20244;-79
2022/10/17 05:51:28;;;;;;;5.20;4.50;;;;;;;;;;5023072;28;20246;-80
2022/10/17 05:53:58;;;;;;;6.43;4.27;;;;;;;;;;5033393;28;20558;-79
2022/10/17 05:56:27;;;;;;;7.03;4.73;;;;;;;;;;5033643;28;20250;-79
2022/10/17 05:58:55;;;;;;;4.93;4.43;;;;;;;;;;5032858;28;20254;-79
2022/10/17 06:01:28;;;;;;;7.97;5.07;;;;;;;;;;5032708;28;20235;-79
2022/10/17 06:03:56;;;;;;;5.27;4.73;;;;;;;;;;5033265;28;20227;-79
2022/10/17 06:06:25;;;;;;;5.57;4.60;;;;;;;;;;5033216;28;20250;-79
2022/10/17 06:08:53;;;;;;;5.73;4.37;;;;;;;;;;5033601;28;20588;-79
2022/10/17 06:11:24;;;;;;;5.20;4.30;;;;;;;;;;5033327;28;20250;-79
2022/10/17 06:13:52;;;;;;;6.13;4.20;;;;;;;;;;5033743;28;20227;-79
2022/10/17 06:16:21;;;;;;;6.33;4.50;;;;;;;;;;5033082;28;20215;-79
2022/10/17 06:18:49;;;;;;;5.53;4.23;;;;;;;;;;5033201;28;20199;-79
2022/10/17 06:21:19;;;;;;;5.03;3.77;;;;;;;;;;5033760;28;20259;-79
2022/10/17 06:23:48;;;;;;;6.80;4.30;;;;;;;;;;5033194;28;20227;-79
2022/10/17 06:26:17;;;;;;;5.60;4.20;;;;;;;;;;5033038;28;20204;-80
2022/10/17 06:28:47;;;;;;;6.10;4.13;;;;;;;;;;5032489;28;20204;-80
2022/10/17 06:31:17;;;;;;;5.47;4.00;;;;;;;;;;5033405;28;20246;-79
2022/10/17 06:33:45;;;;;;;4.93;4.23;;;;;;;;;;5033094;28;20634;-80
2022/10/17 06:36:14;;;;;;;4.87;4.47;;;;;;;;;;5032938;28;20211;-79
2022/10/17 06:38:43;;;;;;;4.80;4.30;;;;;;;;;;5033373;28;20239;-79
2022/10/17 06:41:13;;;;;;;6.50;4.40;;;;;;;;;;5032450;28;20231;-80
2022/10/17 06:43:45;;;;;;;5.23;4.10;;;;;;;;;;5013770;28;20247;-80
2022/10/17 06:46:15;;;;;;;4.47;4.03;;;;;;;;;;5020948;28;20218;-79
2022/10/17 06:48:44;;;;;;;4.40;3.73;;;;;;;;;;5032837;28;20222;-79
2022/10/17 06:51:13;;;;;;;4.20;3.90;;;;;;;;;;5033276;28;20267;-80
2022/10/17 06:53:41;;;;;;;5.37;3.90;;;;;;;;;;5032846;28;20247;-79
2022/10/17 06:56:10;;;;;;;5.17;4.03;;;;;;;;;;5031360;28;20243;-79
2022/10/17 06:58:39;;;;;;;5.03;3.90;;;;;;;;;;5032925;28;20244;-80
2022/10/17 07:01:09;;;;;;;4.03;3.72;;;;;;;;;;5032941;28;20267;-80
2022/10/17 07:03:39;;;;;;;5.30;4.00;;;;;;;;;;5033259;28;20620;-79
2022/10/17 07:06:09;;;;;;;6.87;4.00;;;;;;;;;;5036196;28;20262;-78
2022/10/17 07:08:38;;;;;;;3.77;3.37;;;;;;;;;;5036462;28;20258;-79
2022/10/17 07:11:10;;;;;;;4.13;3.72;;;;;;;;;;5036311;28;20255;-79
2022/10/17 07:13:38;;;;;;;3.80;3.50;;;;;;;;;;5036789;28;20204;-79
2022/10/17 07:16:07;;;;;;;3.90;3.40;;;;;;;;;;5036865;28;20230;-79
2022/10/17 07:18:36;;;;;;;4.78;3.70;;;;;;;;;;5036922;28;20610;-78
2022/10/17 07:21:07;;;;;;;4.38;3.42;;;;;;;;;;5036763;28;20306;-79
2022/10/17 07:23:36;;;;;;;4.07;3.40;;;;;;;;;;5036386;28;20180;-79
2022/10/17 07:26:06;;;;;;;3.97;3.53;;;;;;;;;;5036425;28;20234;-79
2022/10/17 07:28:35;;;;;;;5.10;3.92;;;;;;;;;;5036672;28;20573;-79
2022/10/17 07:31:04;;;;;;;3.72;3.42;;;;;;;;;;5036204;28;20247;-79
2022/10/17 07:33:33;;;;;;;5.15;3.55;;;;;;;;;;5036581;28;20254;-79
2022/10/17 07:36:01;;;;;;;5.68;3.55;;;;;;;;;;5036629;28;20578;-80
2022/10/17 07:38:31;;;;;;;4.50;3.70;;;;;;;;;;5036541;28;20250;-80
2022/10/17 07:41:01;;;;;;;4.07;3.60;;;;;;;;;;5026272;28;20256;-80
2022/10/17 07:43:29;;;;;;;5.15;3.40;;;;;;;;;;5016869;28;20292;-80
2022/10/17 07:45:58;;;;;;;5.65;3.20;;;;;;;;;;5029770;28;20238;-79
2022/10/17 07:48:27;;;;;;;5.80;3.42;;;;;;;;;;5036067;28;20219;-80
2022/10/17 07:50:55;;;;;;;4.35;3.42;;;;;;;;;;5036198;28;20251;-80
2022/10/17 07:53:24;;;;;;;3.30;3.00;;;;;;;;;;5035906;28;20208;-79
2022/10/17 07:55:53;;;;;;;4.03;3.40;;;;;;;;;;5036471;28;20615;-80
2022/10/17 07:58:22;;;;;;;3.97;3.38;;;;;;;;;;5035551;28;20286;-79
2022/10/17 08:00:50;;;;;;;6.15;3.28;;;;;;;;;;5036017;28;20319;-79
2022/10/17 08:03:19;;;;;;;3.35;3.05;;;;;;;;;;5036104;28;20290;-80
2022/10/17 08:05:48;;;;;;;4.30;2.97;;;;;;;;;;5035948;28;20231;-80
2022/10/17 08:08:16;;;;;;;5.22;3.15;;;;;;;;;;5035127;28;20250;-79
2022/10/17 08:10:45;;;;;;;4.25;3.35;;;;;;;;;;5035769;28;20303;-79
2022/10/17 08:13:14;;;;;;;5.65;3.20;;;;;;;;;;5036124;28;20204;-80
2022/10/17 08:15:43;;;;;;;4.03;3.03;;;;;;;;;;5035093;28;20262;-79
2022/10/17 08:18:12;;;;;;;3.60;3.30;;;;;;;;;;5035630;28;20250;-80
2022/10/17 08:20:41;;;;;;;3.65;3.25;;;;;;;;;;5035901;28;20262;-80
2022/10/17 08:23:09;;;;;;;3.88;3.17;;;;;;;;;;5035182;28;20243;-80
2022/10/17 08:25:39;;;;;;;4.30;3.17;;;;;;;;;;5026928;28;20247;-80
2022/10/17 08:28:07;;;;;;;3.63;3.33;;;;;;;;;;5035894;28;20254;-79
2022/10/17 08:30:37;;;;;;;6.05;3.60;;;;;;;;;;5035519;28;20723;-80
2022/10/17 08:33:06;;;;;;;4.88;2.95;;;;;;;;;;5035465;28;20626;-80
2022/10/17 08:35:34;;;;;;;3.47;3.17;;;;;;;;;;5035415;28;20282;-80
2022/10/17 08:38:03;;;;;;;6.15;3.25;;;;;;;;;;5034988;28;20243;-79
2022/10/17 08:40:34;;;;;;;7.22;3.00;;;;;;;;;;5021510;28;20698;-79
2022/10/17 08:43:20;;;;;;;3.65;3.17;;;;;;;;;;5031553;28;20223;-79
2022/10/17 08:45:52;;;;;;;4.47;3.10;;;;;;;;;;5028169;28;20259;-79
2022/10/17 08:48:22;;;;;;;5.75;3.20;;;;;;;;;;5035224;28;20267;-79
2022/10/17 08:50:52;;;;;;;3.90;3.30;;;;;;;;;;5035081;28;20310;-79
2022/10/17 08:53:23;;;;;;;4.90;3.15;;;;;;;;;;5035050;28;20246;-80
2022/10/17 08:55:53;;;;;;;3.78;3.17;;;;;;;;;;5030064;28;20196;-79
2022/10/17 08:58:22;;;;;;;5.15;3.05;;;;;;;;;;5033951;28;20223;-80
2022/10/17 09:00:58;;;;;;;7.90;3.42;;;;;;;;;;5034362;28;20228;-79
2022/10/17 09:03:37;;;;;;;5.10;3.28;;;;;;;;;;5034753;28;20374;-79
2022/10/17 09:06:13;;;;;;;5.45;3.38;;;;;;;;;;5034035;28;20239;-79
2022/10/17 09:08:47;;;;;;;6.78;3.25;;;;;;;;;;5034837;28;20246;-79
2022/10/17 09:11:21;;;;;;;4.45;2.70;;;;;;;;;;5034417;28;20258;-79
2022/10/17 09:13:56;;;;;;;5.32;3.20;;;;;;;;;;5034106;28;20295;-79
2022/10/17 09:16:32;;;;;;;6.50;3.30;;;;;;;;;;5034483;28;20730;-79
2022/10/17 09:19:02;;;;;;;7.05;3.13;;;;;;;;;;5034506;28;20724;-80
2022/10/17 09:21:36;;;;;;;5.18;3.53;;;;;;;;;;5034553;28;20226;-79
2022/10/17 09:24:09;;;;;;;5.90;3.10;;;;;;;;;;5033817;28;20687;-79
2022/10/17 09:26:45;;;;;;;3.88;2.65;;;;;;;;;;5032859;28;20206;-79
2022/10/17 09:29:17;;;;;;;6.75;3.05;;;;;;;;;;5018021;28;20290;-79
2022/10/17 09:31:48;;;;;;;4.22;3.13;;;;;;;;;;5014639;28;20356;-79
2022/10/17 09:34:17;;;;;;;9.05;3.50;;;;;;;;;;5029115;28;20222;-79
2022/10/17 09:36:45;;;;;;;3.42;3.13;;;;;;;;;;5033451;28;20298;-79
2022/10/17 09:39:15;;;;;;;5.50;2.97;;;;;;;;;;5034074;28;20286;-79
2022/10/17 09:41:44;;;;;;;5.47;3.10;;;;;;;;;;5034170;28;20311;-79
2022/10/17 09:44:16;;;;;;;6.78;3.55;;;;;;;;;;5033495;28;20196;-79
2022/10/17 09:46:48;;;;;;;4.55;3.05;;;;;;;;;;5033738;28;20290;-79
2022/10/17 09:49:19;;;;;;;4.18;3.03;;;;;;;;;;5033720;28;20254;-79
2022/10/17 09:51:48;;;;;;;6.22;3.10;;;;;;;;;;5033650;28;20199;-79
2022/10/17 09:54:21;;;;;;;4.82;2.92;;;;;;;;;;5033227;28;20204;-79
2022/10/17 09:57:00;;;;;;;3.22;2.90;;;;;;;;;;5033415;28;20227;-79
2022/10/17 09:59:32;;;;;;;3.47;3.05;;;;;;;;;;5033791;28;20223;-79
2022/10/17 10:02:15;;;;;;;4.28;3.08;;;;;;;;;;5033519;28;20259;-79
2022/10/17 10:04:54;;;;;;;5.13;3.17;;;;;;;;;;5033515;28;20223;-79
2022/10/17 10:07:38;;;;;;;3.30;2.85;;;;;;;;;;5033445;28;20207;-79
2022/10/17 10:10:08;;;;;;;3.28;2.97;;;;;;;;;;5033342;28;20234;-79
2022/10/17 10:12:38;;;;;;;5.22;2.90;;;;;;;;;;5033954;28;20226;-79
2022/10/17 10:15:21;;;;;;;5.88;3.03;;;;;;;;;;5033389;28;20323;-80
2022/10/17 10:17:49;;;;;;;6.38;2.70;;;;;;;;;;5021872;28;20239;-79
2022/10/17 10:20:33;;;;;;;6.70;3.10;;;;;;;;;;5013428;28;20224;-79
2022/10/17 10:23:17;;;;;;;4.85;2.70;;;;;;;;;;5026576;28;20243;-79
2022/10/17 10:25:56;;;;;;;4.05;2.90;;;;;;;;;;5032139;28;20200;-79
2022/10/17 10:28:29;;;;;;;3.67;2.97;;;;;;;;;;5033242;28;20791;-79
2022/10/17 10:30:58;;;;;;;4.55;2.90;;;;;;;;;;5033111;28;20306;-79
2022/10/17 10:33:29;;;;;;;8.30;2.95;;;;;;;;;;5033539;28;20232;-79
2022/10/17 10:36:02;;;;;;;2.72;2.50;;;;;;;;;;5032995;28;20282;-79
2022/10/17 10:38:31;;;;;;;5.22;2.83;;;;;;;;;;5034044;28;20196;-79
2022/10/17 10:41:02;;;;;;;4.03;3.05;;;;;;;;;;5037055;28;20314;-79
2022/10/17 10:43:33;;;;;;;6.40;3.05;;;;;;;;;;5037406;28;20239;-78
2022/10/17 10:46:03;;;;;;;3.35;2.88;;;;;;;;;;5037113;28;20212;-79
2022/10/17 10:48:34;;;;;;;5.28;2.80;;;;;;;;;;5037128;28;20733;-79
2022/10/17 10:51:06;;;;;;;4.68;2.78;;;;;;;;;;5036842;28;20224;-78
2022/10/17 10:53:41;;;;;;;5.18;3.05;;;;;;;;;;5017203;28;20181;-78
2022/10/17 10:56:11;;;;;;;5.97;3.33;;;;;;;;;;5017157;28;20203;-78
2022/10/17 10:58:47;;;;;;;3.40;3.10;;;;;;;;;;5017059;28;20250;-79
2022/10/17 11:01:18;;;;;;;5.78;2.80;;;;;;;;;;5033893;28;20258;-79
2022/10/17 11:03:53;;;;;;;2.83;2.63;;;;;;;;;;5036475;28;20219;-78
2022/10/17 11:06:26;;;;;;;3.40;2.55;;;;;;;;;;5036507;28;20227;-78
2022/10/17 11:08:59;;;;;;;4.15;2.67;;;;;;;;;;5036870;28;20275;-78
2022/10/17 11:11:30;;;;;;;3.90;2.85;;;;;;;;;;5036538;28;20588;-78
2022/10/17 11:13:59;;;;;;;3.30;2.92;;;;;;;;;;5036895;28;20189;-78
2022/10/17 11:16:30;;;;;;;4.07;2.70;;;;;;;;;;5036357;28;20624;-78
2022/10/17 11:19:00;;;;;;;4.32;2.60;;;;;;;;;;5036808;28;20188;-79
2022/10/17 11:21:35;;;;;;;3.88;3.03;;;;;;;;;;5036088;28;20704;-78
2022/10/17 11:24:07;;;;;;;4.05;2.90;;;;;;;;;;5036214;28;20286;-78
2022/10/17 11:26:40;;;;;;;3.95;2.70;;;;;;;;;;5036173;28;20674;-79
2022/10/17 11:29:11;;;;;;;5.95;3.00;;;;;;;;;;5035588;28;20246;-78
2022/10/17 11:31:43;;;;;;;4.60;2.90;;;;;;;;;;5036123;28;20254;-78
2022/10/17 11:34:18;;;;;;;4.78;2.90;;;;;;;;;;5035753;28;20242;-78
2022/10/17 11:36:49;;;;;;;5.35;3.10;;;;;;;;;;5036095;28;20230;-77
2022/10/17 11:39:19;;;;;;;7.07;2.90;;;;;;;;;;5035316;28;20259;-77
2022/10/17 11:41:50;;;;;;;5.82;3.25;;;;;;;;;;5036026;28;20680;-77
2022/10/17 11:44:23;;;;;;;3.88;2.88;;;;;;;;;;5029945;28;20303;-77
2022/10/17 11:46:55;;;;;;;5.30;3.05;;;;;;;;;;5016540;28;20611;-76
2022/10/17 11:49:25;;;;;;;6.68;3.00;;;;;;;;;;5015747;28;20256;-77
2022/10/17 11:52:01;;;;;;;4.68;3.10;;;;;;;;;;5024836;28;20196;-79
2022/10/17 11:54:33;;;;;;;6.00;3.25;;;;;;;;;;5035568;28;20200;-79
2022/10/17 11:57:08;;;;;;;5.82;3.13;;;;;;;;;;5036079;28;20564;-80
2022/10/17 11:59:49;;;;;;;4.20;2.90;;;;;;;;;;5023887;28;20680;-79
2022/10/17 12:02:21;;;;;;;4.78;3.53;;;;;;;;;;5016149;28;20248;-79
2022/10/17 12:04:54;;;;;;;3.85;3.08;;;;;;;;;;5029782;28;20220;-78
2022/10/17 12:07:28;;;;;;;4.47;3.38;;;;;;;;;;5035550;28;20218;-79
2022/10/17 12:10:00;;;;;;;5.60;3.60;;;;;;;;;;5034703;28;20218;-78
2022/10/17 12:12:29;;;;;;;4.38;3.28;;;;;;;;;;5035902;28;20244;-79
2022/10/17 12:15:13;;;;;;;5.00;3.50;;;;;;;;;;5022854;28;20283;-78
2022/10/17 12:17:43;;;;;;;5.95;3.10;;;;;;;;;;5034810;28;20287;-79
2022/10/17 12:20:26;;;;;;;4.68;3.13;;;;;;;;;;5035028;28;20689;-79
2022/10/17 12:22:57;;;;;;;5.45;3.30;;;;;;;;;;5025027;28;20637;-79
2022/10/17 12:25:28;;;;;;;6.13;3.45;;;;;;;;;;5032002;28;20640;-79
2022/10/17 12:28:12;;;;;;;5.32;3.38;;;;;;;;;;5021127;28;20558;-78
2022/10/17 12:30:50;;;;;;;5.50;3.40;;;;;;;;;;5034435;28;20254;-79
2022/10/17 12:33:21;;;;;;;4.68;3.55;;;;;;;;;;5033106;28;20718;-78
2022/10/17 12:36:04;;;;;;;8.10;3.78;;;;;;;;;;5033256;28;20199;-79
2022/10/17 12:41:18;;;;;;;5.10;3.83;;;;;;;;;;5025487;28;20589;-79
2022/10/17 12:43:48;;;;;;;8.80;4.35;;;;;;;;;;5030889;28;20654;-79
2022/10/17 12:46:46;;;;;;;5.53;3.83;;;;;;;;;;5033831;28;20208;-78
2022/10/17 12:49:48;;;;;;;6.78;4.18;;;;;;;;;;5004566;28;20255;-79
2022/10/17 12:52:24;;;;;;;6.18;4.40;;;;;;;;;;5026207;28;20563;-79
2022/10/17 12:54:58;;;;;;;4.40;3.97;;;;;;;;;;5032754;28;20287;-79
2022/10/17 12:57:42;;;;;;;5.72;4.53;;;;;;;;;;5031134;28;20239;-79
2022/10/17 13:00:15;;;;;;;4.50;4.10;;;;;;;;;;5015159;28;20689;-79
2022/10/17 13:02:44;;;;;;;5.03;4.53;;;;;;;;;;5020992;28;20616;-79
2022/10/17 13:05:16;;;;;;;6.88;4.78;;;;;;;;;;5032318;28;20219;-79
2022/10/17 13:07:45;;;;;;;6.22;4.70;;;;;;;;;;5031604;28;20266;-78
2022/10/17 13:10:26;;;;;;;7.53;4.53;;;;;;;;;;5032419;28;20642;-78
2022/10/17 13:13:05;;;;;;;6.03;4.85;;;;;;;;;;5028785;28;20279;-79
2022/10/17 13:15:34;;;;;;;8.05;4.95;;;;;;;;;;5012303;28;20212;-79
2022/10/17 13:18:03;;;;;;;7.28;5.13;;;;;;;;;;5020979;28;20277;-78
2022/10/17 13:20:32;;;;;;;11.32;5.30;;;;;;;;;;5031342;28;20302;-78
2022/10/17 13:23:01;;;;;;;5.75;5.20;;;;;;;;;;5030091;28;20200;-79
2022/10/17 13:25:31;;;;;;;6.00;5.43;;;;;;;;;;5031195;28;20255;-79
2022/10/17 13:28:06;;;;;;;7.95;5.45;;;;;;;;;;5029876;28;20204;-79
2022/10/17 13:30:36;;;;;;;7.20;4.78;;;;;;;;;;5030592;28;20315;-79
2022/10/17 13:33:16;;;;;;;6.47;4.80;;;;;;;;;;5029875;28;20633;-79
2022/10/17 13:35:45;;;;;;;8.18;5.53;;;;;;;;;;5026618;28;20634;-80
2022/10/17 13:38:29;;;;;;;8.32;5.10;;;;;;;;;;5020752;28;20589;-79
2022/10/17 13:40:59;;;;;;;7.68;5.15;;;;;;;;;;5025043;28;20251;-80
2022/10/17 13:43:47;;;;;;;6.18;5.57;;;;;;;;;;5015732;28;20238;-77
2022/10/17 13:46:20;;;;;;;7.18;5.32;;;;;;;;;;5012513;28;20291;-79
2022/10/17 13:49:11;;;;;;;9.73;5.43;;;;;;;;;;5020243;28;20204;-78
2022/10/17 13:51:43;;;;;;;7.88;5.20;;;;;;;;;;5025119;28;20757;-79
2022/10/17 13:54:33;;;;;;;5.82;4.97;;;;;;;;;;5024453;28;20200;-78
2022/10/17 13:57:04;;;;;;;8.82;5.40;;;;;;;;;;5022727;28;20287;-79
2022/10/17 13:59:37;;;;;;;6.00;5.30;;;;;;;;;;5027771;28;20262;-79
2022/10/17 14:02:11;;;;;;;7.88;4.97;;;;;;;;;;5031066;28;20200;-79
2022/10/17 14:04:40;;;;;;;5.53;4.82;;;;;;;;;;5030546;28;20220;-78
2022/10/17 14:07:31;;;;;;;8.75;4.93;;;;;;;;;;5020957;28;20744;-78
2022/10/17 14:10:21;;;;;;;5.75;5.07;;;;;;;;;;5029032;28;20227;-79
2022/10/17 14:12:52;;;;;;;7.28;4.63;;;;;;;;;;5030186;28;21001;-78
2022/10/17 14:15:22;;;;;;;6.78;4.82;;;;;;;;;;5031878;28;20235;-78
2022/10/17 14:17:55;;;;;;;6.57;5.05;;;;;;;;;;5033365;28;20624;-78
2022/10/17 14:20:24;;;;;;;8.15;5.20;;;;;;;;;;5033492;28;20255;-78
2022/10/17 14:23:29;;;;;;;6.70;5.28;;;;;;;;;;5030326;28;20658;-78
2022/10/17 14:26:05;;;;;;;5.80;4.90;;;;;;;;;;5034733;28;20270;-80
2022/10/17 14:28:35;;;;;;;9.35;5.13;;;;;;;;;;5023084;28;20287;-76
2022/10/17 14:31:12;;;;;;;6.70;5.15;;;;;;;;;;5032810;28;20571;-75
2022/10/17 14:33:44;;;;;;;9.65;5.43;;;;;;;;;;5030988;28;20196;-75
2022/10/17 14:36:18;;;;;;;7.13;5.30;;;;;;;;;;5032938;28;20199;-75
2022/10/17 14:38:48;;;;;;;6.90;4.80;;;;;;;;;;5037316;28;20624;-75
2022/10/17 14:41:19;;;;;;;5.93;5.28;;;;;;;;;;5034963;28;20259;-75
2022/10/17 14:44:16;;;;;;;7.07;5.32;;;;;;;;;;5032579;28;20294;-78
2022/10/17 14:46:45;;;;;;;8.68;5.35;;;;;;;;;;5018945;28;20715;-75
2022/10/17 14:49:20;;;;;;;6.53;5.20;;;;;;;;;;5032097;28;20236;-75
2022/10/17 14:52:23;;;;;;;7.00;5.20;;;;;;;;;;5032553;28;20199;-75
2022/10/17 14:54:51;;;;;;;7.00;5.00;;;;;;;;;;5027701;28;20219;-84
2022/10/17 14:57:23;;;;;;;9.07;5.30;;;;;;;;;;5032305;28;20243;-75
2022/10/17 14:59:53;;;;;;;5.95;5.43;;;;;;;;;;5032012;28;20259;-76
2022/10/17 15:02:23;;;;;;;7.80;5.35;;;;;;;;;;5024268;28;20200;-75
2022/10/17 15:04:52;;;;;;;7.95;5.25;;;;;;;;;;5032080;28;20219;-78
2022/10/17 15:07:21;;;;;;;9.32;5.90;;;;;;;;;;5032234;28;20199;-75
2022/10/17 15:09:50;;;;;;;6.15;5.55;;;;;;;;;;5029830;28;20231;-76
2022/10/17 15:12:20;;;;;;;7.60;5.90;;;;;;;;;;5032626;28;20204;-75